Time;durP1;ratioP1;P1;durP2;ratioP2;P2;SDS_P1;SDS_P2;PMS_P1;PMS_P2;Temp;Humidity;BMP_temperature;BMP_pressure;BME280_temperature;BME280_humidity;BME280_pressure;Samples;Min_cycle;Max_cycle;Signal;HPM_P1;HPM_P2
2021/12/16 00:02:57;;;;;;;3.13;1.67;;;;;;;19.02;61.06;99829.56;3121590;28;20044;-48
2021/12/16 00:08:21;;;;;;;3.88;1.27;;;;;;;18.97;60.45;99831.94;3123316;28;20802;-47
2021/12/16 00:09:59;;;;;;;7.45;1.35;;;;;;;18.95;60.91;99834.84;3125835;28;20076;-44
2021/12/16 00:30:06;;;;;;;2.53;1.20;;;;;;;18.66;61.21;99839.97;3111323;28;20045;-44
2021/12/16 00:31:48;;;;;;;3.13;1.02;;;;;;;18.65;61.17;99838.31;3111678;28;20087;-42
2021/12/16 00:33:34;;;;;;;2.13;1.45;;;;;;;18.63;61.22;99838.47;3110445;28;21291;-45
2021/12/16 00:35:07;;;;;;;4.00;1.40;;;;;;;18.61;61.43;99828.91;3107241;28;20079;-46
2021/12/16 00:36:41;;;;;;;1.98;1.73;;;;;;;18.57;61.47;99836.50;3111543;28;20049;-45
2021/12/16 00:38:14;;;;;;;1.70;1.08;;;;;;;18.56;61.55;99837.50;3111907;28;20136;-45
2021/12/16 00:39:47;;;;;;;3.13;1.80;;;;;;;18.54;61.54;99834.16;3113086;28;20136;-41
2021/12/16 00:41:18;;;;;;;3.13;1.35;;;;;;;18.54;61.84;99834.16;3111515;28;20064;-46
2021/12/16 00:42:53;;;;;;;1.98;1.80;;;;;;;18.52;61.95;99834.31;3112924;28;20061;-48
2021/12/16 00:44:49;;;;;;;2.70;1.35;;;;;;;18.50;61.87;99833.66;3119632;28;20049;-45
2021/12/16 00:46:32;;;;;;;2.17;1.58;;;;;;;18.46;61.75;99835.00;3108260;28;20054;-44
2021/12/16 00:48:21;;;;;;;2.00;1.55;;;;;;;18.47;62.23;99847.44;3111990;28;20045;-45
2021/12/16 00:49:54;;;;;;;2.83;1.85;;;;;;;18.44;62.01;99841.56;3112718;28;20077;-43
2021/12/16 00:55:22;;;;;;;1.70;0.98;;;;;;;18.38;62.36;99848.47;3111278;28;20068;-45
2021/12/16 00:56:59;;;;;;;2.72;1.02;;;;;;;18.37;61.99;99849.50;3113753;28;20560;-46
2021/12/16 00:58:38;;;;;;;3.92;1.38;;;;;;;18.34;62.31;99847.16;3113246;28;20049;-45
2021/12/16 01:00:14;;;;;;;3.85;1.70;;;;;;;18.34;62.15;99851.69;3109228;28;20088;-46
2021/12/16 01:01:54;;;;;;;1.85;1.60;;;;;;;18.31;62.28;99848.34;3112133;28;20056;-42
2021/12/16 01:03:32;;;;;;;3.22;1.48;;;;;;;18.29;62.13;99852.19;3111520;28;20049;-47
2021/12/16 01:05:45;;;;;;;1.52;1.35;;;;;;;18.26;62.36;99855.22;3111983;28;20084;-44
2021/12/16 01:07:39;;;;;;;1.38;0.93;;;;;;;18.24;62.24;99850.00;3112111;28;20053;-43
2021/12/16 01:33:46;;;;;;;2.55;1.25;;;;;;;17.97;63.04;99859.31;3124640;28;20391;-43
2021/12/16 01:35:25;;;;;;;2.88;1.13;;;;;;;17.97;62.90;99866.50;3123073;28;20132;-44
2021/12/16 01:37:48;;;;;;;4.68;1.27;;;;;;;17.94;63.05;99861.47;3124599;28;20185;-46
2021/12/16 01:46:41;;;;;;;2.83;1.17;;;;;;;17.86;63.27;99856.97;3123018;28;20517;-44
2021/12/16 01:50:05;;;;;;;1.27;1.05;;;;;;;17.81;63.36;99853.97;3118003;28;20187;-45
2021/12/16 01:51:54;;;;;;;4.00;1.10;;;;;;;17.79;63.30;99855.97;3123983;28;20110;-45
2021/12/16 01:53:51;;;;;;;2.67;1.48;;;;;;;17.79;63.29;99855.97;3119731;28;20092;-44
2021/12/16 01:55:28;;;;;;;0.80;0.80;;;;;;;17.78;63.37;99862.31;3109312;28;20053;-43
2021/12/16 01:57:09;;;;;;;1.58;0.90;;;;;;;17.76;63.38;99856.28;3110669;28;20065;-43
2021/12/16 01:58:41;;;;;;;3.30;1.00;;;;;;;17.73;63.42;99854.75;3113570;28;20049;-40
2021/12/16 02:00:17;;;;;;;2.03;1.25;;;;;;;17.72;63.54;99850.41;3110483;28;20049;-43
2021/12/16 02:01:52;;;;;;;2.13;1.25;;;;;;;17.72;63.45;99849.56;3111450;28;20060;-44
2021/12/16 02:03:37;;;;;;;0.98;0.80;;;;;;;17.71;63.46;99853.25;3105251;28;20071;-47
2021/12/16 02:05:26;;;;;;;2.70;0.93;;;;;;;17.70;63.53;99852.41;3110252;28;20068;-43
2021/12/16 02:07:09;;;;;;;1.20;1.15;;;;;;;17.68;63.56;99858.97;3109448;28;20041;-42
2021/12/16 02:08:41;;;;;;;2.55;0.98;;;;;;;17.67;63.61;99843.88;3112272;28;20060;-44
2021/12/16 02:10:18;;;;;;;2.92;1.27;;;;;;;17.65;63.76;99850.22;3111327;28;20041;-43
2021/12/16 02:11:57;;;;;;;2.03;1.20;;;;;;;17.63;63.78;99846.91;3113768;28;20309;-44
2021/12/16 02:27:12;;;;;;;1.77;1.08;;;;;;;17.62;63.69;99833.63;3113744;28;20044;-43
2021/12/16 02:28:35;;;;;;;1.50;1.05;;;;;;;17.51;63.54;99839.34;3124572;28;20041;-41
2021/12/16 02:32:10;;;;;;;1.55;1.02;;;;;;;17.47;63.61;99835.28;3110017;28;20477;-45
2021/12/16 02:35:40;;;;;;;2.45;0.98;;;;;;;17.45;63.67;99840.84;3123585;28;20140;-48
2021/12/16 02:37:17;;;;;;;1.55;1.23;;;;;;;17.43;63.65;99837.47;3116987;28;20045;-46
2021/12/16 02:38:51;;;;;;;3.15;0.93;;;;;;;17.42;63.55;99839.31;3124482;28;20039;-43
2021/12/16 02:40:23;;;;;;;1.05;0.65;;;;;;;17.41;63.38;99837.66;3123336;28;20053;-46
2021/12/16 02:41:59;;;;;;;2.22;0.88;;;;;;;17.39;63.46;99836.97;3125036;28;20041;-42
2021/12/16 02:49:01;;;;;;;1.05;0.73;;;;;;;17.36;63.62;99828.44;3124673;28;20037;-44
2021/12/16 02:50:33;;;;;;;1.75;0.80;;;;;;;17.35;63.58;99832.09;3124693;28;20140;-46
2021/12/16 02:52:05;;;;;;;2.00;1.08;;;;;;;17.34;63.50;99831.28;3125548;28;20139;-44
2021/12/16 02:53:42;;;;;;;1.58;1.05;;;;;;;17.33;63.56;99832.28;3126230;28;20048;-44
2021/12/16 02:55:20;;;;;;;1.33;0.90;;;;;;;17.33;63.46;99831.47;3118025;28;20780;-43
2021/12/16 02:56:52;;;;;;;1.67;0.90;;;;;;;17.31;63.54;99828.94;3124019;28;20148;-44
2021/12/16 02:58:25;;;;;;;0.95;0.85;;;;;;;17.30;63.39;99829.09;3124009;28;20044;-44
2021/12/16 02:59:58;;;;;;;1.60;0.70;;;;;;;17.29;63.49;99833.59;3124376;28;20171;-46
2021/12/16 03:01:34;;;;;;;1.15;0.85;;;;;;;17.28;63.56;99829.25;3123716;28;20060;-43
2021/12/16 03:03:05;;;;;;;0.80;0.80;;;;;;;17.28;63.41;99825.75;3122559;28;20762;-45
2021/12/16 03:04:40;;;;;;;2.88;1.17;;;;;;;17.25;63.45;99824.22;3124153;28;20972;-48
2021/12/16 03:06:12;;;;;;;0.77;0.65;;;;;;;17.26;63.38;99827.75;3123912;28;20052;-42
2021/12/16 03:07:44;;;;;;;1.17;0.70;;;;;;;17.25;63.43;99831.44;3124442;28;20041;-42
2021/12/16 03:09:29;;;;;;;0.70;0.68;;;;;;;17.24;63.47;99830.59;3123590;28;20134;-42
2021/12/16 03:11:16;;;;;;;1.60;1.00;;;;;;;17.22;63.50;99823.72;3124633;28;20534;-42
2021/12/16 03:12:58;;;;;;;1.35;0.70;;;;;;;17.22;63.37;99831.75;3122947;28;20215;-42
2021/12/16 03:14:36;;;;;;;1.50;0.95;;;;;;;17.21;63.22;99830.91;3124547;28;20740;-42
2021/12/16 03:16:20;;;;;;;1.73;0.95;;;;;;;17.20;63.35;99823.88;3122833;28;20144;-42
2021/12/16 03:17:58;;;;;;;0.63;0.40;;;;;;;17.18;63.19;99826.72;3125016;28;20045;-42
2021/12/16 03:19:41;;;;;;;1.40;0.77;;;;;;;17.16;63.30;99826.06;3113194;28;20052;-41
2021/12/16 03:21:21;;;;;;;1.23;1.08;;;;;;;17.16;63.15;99834.13;3108874;28;20494;-42
2021/12/16 03:23:03;;;;;;;1.23;0.90;;;;;;;17.13;63.46;99829.09;3110524;28;20464;-43
2021/12/16 03:25:02;;;;;;;1.00;0.90;;;;;;;17.13;63.22;99826.41;3123783;28;20049;-42
2021/12/16 03:27:24;;;;;;;2.47;1.58;;;;;;;17.12;63.35;99823.88;3117471;28;20037;-42
2021/12/16 03:29:16;;;;;;;1.13;0.90;;;;;;;17.10;63.53;99824.03;3112580;28;20045;-43
2021/12/16 03:31:04;;;;;;;1.42;0.82;;;;;;;17.10;63.37;99828.56;3109139;28;20060;-42
2021/12/16 03:34:38;;;;;;;4.38;0.85;;;;;;;17.08;63.18;99826.06;3111981;28;20053;-43
2021/12/16 03:36:25;;;;;;;2.00;0.80;;;;;;;17.08;63.39;99823.38;3109626;28;20753;-42
2021/12/16 03:38:02;;;;;;;2.15;1.10;;;;;;;17.06;63.50;99820.00;3109506;28;20052;-42
2021/12/16 03:39:35;;;;;;;0.85;0.65;;;;;;;17.05;63.46;99818.34;3109913;28;20041;-42
2021/12/16 03:41:09;;;;;;;2.33;0.70;;;;;;;17.05;63.43;99828.19;3111123;28;20064;-41
2021/12/16 03:42:46;;;;;;;1.10;0.98;;;;;;;17.03;63.53;99820.34;3113006;28;20045;-41
2021/12/16 03:44:26;;;;;;;0.90;0.70;;;;;;;17.03;63.41;99811.47;3112798;28;20069;-41
2021/12/16 03:47:51;;;;;;;;;;;;;;;17.03;63.17;99814.97;3113510;28;20140;-42
2021/12/16 03:49:25;;;;;;;0.90;0.90;;;;;;;17.03;63.26;99817.66;3109393;28;19936;-41
2021/12/16 03:50:59;;;;;;;3.15;0.70;;;;;;;17.03;62.97;99814.97;3111362;28;21095;-41
2021/12/16 03:52:31;;;;;;;1.25;0.77;;;;;;;17.02;63.05;99810.63;3111927;28;20041;-40
2021/12/16 03:54:08;;;;;;;1.17;1.00;;;;;;;17.04;63.15;99808.59;3111814;28;20495;-41
2021/12/16 03:55:40;;;;;;;1.55;0.90;;;;;;;17.01;62.94;99798.22;3113344;28;20046;-42
2021/12/16 03:57:14;;;;;;;1.40;0.70;;;;;;;16.99;63.10;99805.56;3108205;28;20049;-41
2021/12/16 03:58:46;;;;;;;0.40;0.40;;;;;;;16.98;63.10;99812.78;3112142;28;20057;-43
2021/12/16 04:00:22;;;;;;;1.35;1.20;;;;;;;16.97;62.96;99813.78;3111069;28;20057;-41
2021/12/16 04:01:56;;;;;;;1.52;0.70;;;;;;;16.97;62.59;99808.44;3112654;28;20049;-41
2021/12/16 04:03:28;;;;;;;2.75;0.80;;;;;;;16.96;63.22;99804.06;3111456;28;20688;-41
2021/12/16 04:05:01;;;;;;;0.95;0.70;;;;;;;16.95;63.07;99809.59;3109041;28;20133;-43
2021/12/16 04:06:36;;;;;;;1.48;0.75;;;;;;;16.95;63.01;99804.25;3110932;28;20046;-42
2021/12/16 04:08:07;;;;;;;1.48;0.65;;;;;;;16.94;62.81;99805.25;3111553;28;20132;-43
2021/12/16 04:09:40;;;;;;;1.13;0.60;;;;;;;16.94;63.21;99807.94;3112570;28;20053;-41
2021/12/16 04:11:19;;;;;;;0.73;0.73;;;;;;;16.92;62.83;99805.41;3112202;28;20121;-41
2021/12/16 04:12:52;;;;;;;1.08;0.95;;;;;;;16.91;63.07;99802.88;3106331;28;20156;-41
2021/12/16 04:14:24;;;;;;;0.80;0.80;;;;;;;16.90;62.97;99795.84;3111012;28;20135;-41
2021/12/16 04:15:57;;;;;;;1.10;0.60;;;;;;;16.89;63.00;99795.03;3110241;28;20137;-42
2021/12/16 04:17:32;;;;;;;1.60;0.98;;;;;;;16.89;62.97;99800.38;3112475;28;20056;-41
2021/12/16 04:19:11;;;;;;;2.47;1.17;;;;;;;16.87;62.99;99794.34;3110888;28;20132;-42
2021/12/16 04:20:43;;;;;;;1.25;0.65;;;;;;;16.87;63.03;99791.66;3111547;28;20124;-43
2021/12/16 04:22:17;;;;;;;0.90;0.90;;;;;;;16.87;63.10;99801.53;3112478;28;22333;-41
2021/12/16 04:23:50;;;;;;;0.98;0.63;;;;;;;16.87;63.07;99796.19;3113371;28;20041;-41
2021/12/16 04:25:23;;;;;;;1.05;0.75;;;;;;;16.88;63.20;99790.69;3110135;28;20148;-43
2021/12/16 04:26:58;;;;;;;0.85;0.60;;;;;;;16.89;63.14;99791.50;3111908;28;20132;-43
2021/12/16 04:28:32;;;;;;;1.30;0.73;;;;;;;16.89;63.07;99789.66;3123373;28;20540;-41
2021/12/16 04:30:05;;;;;;;0.68;0.40;;;;;;;16.90;62.96;99788.66;3123975;28;20122;-43
2021/12/16 04:31:38;;;;;;;0.60;0.40;;;;;;;16.91;63.01;99794.84;3124303;28;20048;-43
2021/12/16 04:33:10;;;;;;;1.08;0.60;;;;;;;16.91;63.18;99793.03;3119680;28;20092;-42
2021/12/16 04:34:42;;;;;;;0.85;0.57;;;;;;;16.92;63.25;99793.84;3124907;28;20137;-42
2021/12/16 04:36:15;;;;;;;1.02;0.55;;;;;;;16.92;63.18;99786.66;3127757;28;20068;-43
2021/12/16 04:37:47;;;;;;;3.13;0.80;;;;;;;16.93;63.29;99788.31;3123774;28;20128;-42
2021/12/16 04:39:23;;;;;;;1.17;0.88;;;;;;;16.93;63.18;99785.63;3123056;28;20073;-41
2021/12/16 04:40:55;;;;;;;0.80;0.75;;;;;;;16.94;63.28;99787.34;3119874;28;20111;-41
2021/12/16 04:42:27;;;;;;;1.00;0.70;;;;;;;16.96;63.08;99779.09;3123339;28;20121;-43
2021/12/16 04:44:02;;;;;;;1.75;0.63;;;;;;;16.95;63.33;99786.31;3122675;28;20045;-42
2021/12/16 04:45:35;;;;;;;1.00;0.60;;;;;;;16.95;63.24;99782.81;3122179;28;20045;-43
2021/12/16 04:47:08;;;;;;;0.70;0.70;;;;;;;16.96;63.15;99784.47;3122367;28;20057;-41
2021/12/16 04:48:43;;;;;;;0.75;0.50;;;;;;;16.94;63.18;99781.97;3124138;28;20053;-42
2021/12/16 04:50:16;;;;;;;2.28;0.75;;;;;;;16.95;63.32;99782.81;3123019;28;20049;-43
2021/12/16 04:51:50;;;;;;;2.60;0.85;;;;;;;16.95;63.39;99777.44;3125051;28;20123;-42
2021/12/16 04:53:22;;;;;;;1.35;0.68;;;;;;;16.96;63.23;99779.09;3124435;28;20041;-41
2021/12/16 04:54:55;;;;;;;0.50;0.50;;;;;;;16.95;63.35;99777.44;3125698;28;20053;-41
2021/12/16 04:56:27;;;;;;;0.77;0.55;;;;;;;16.95;63.39;99783.63;3126543;28;20130;-44
2021/12/16 04:57:59;;;;;;;1.85;0.63;;;;;;;16.95;63.39;99783.63;3127925;28;20052;-41
2021/12/16 04:59:35;;;;;;;1.38;0.55;;;;;;;16.95;63.26;99789.00;3126373;28;20469;-40
2021/12/16 05:01:06;;;;;;;0.70;0.50;;;;;;;16.94;63.27;99786.50;3125271;28;20144;-43
2021/12/16 05:02:39;;;;;;;0.63;0.45;;;;;;;16.94;63.13;99790.00;3124414;28;21438;-42
2021/12/16 05:04:10;;;;;;;0.82;0.60;;;;;;;16.94;63.20;99791.84;3125483;28;20670;-43
2021/12/16 05:05:42;;;;;;;0.55;0.55;;;;;;;16.93;63.30;99790.16;3124920;28;20124;-41
2021/12/16 05:07:15;;;;;;;2.20;0.75;;;;;;;16.94;63.32;99781.97;3125009;28;20052;-41
2021/12/16 05:08:47;;;;;;;0.63;0.52;;;;;;;16.95;63.17;99788.16;3124049;28;20045;-42
2021/12/16 05:10:19;;;;;;;3.15;0.70;;;;;;;16.97;62.94;99783.47;3122039;28;20724;-41
2021/12/16 05:11:50;;;;;;;1.30;0.90;;;;;;;17.00;62.58;99780.47;3125959;28;20454;-41
2021/12/16 05:13:25;;;;;;;0.98;0.63;;;;;;;17.05;62.51;99783.50;3122675;28;20568;-41
2021/12/16 05:14:58;;;;;;;0.70;0.68;;;;;;;17.10;62.64;99773.09;3123975;28;20126;-42
2021/12/16 05:16:30;;;;;;;2.15;0.60;;;;;;;17.16;61.92;99772.44;3124457;28;20809;-41
2021/12/16 05:18:05;;;;;;;2.83;1.27;;;;;;;17.23;62.43;99777.97;3124562;28;20114;-41
2021/12/16 05:19:40;;;;;;;2.17;0.60;;;;;;;17.28;61.35;99778.31;3124397;28;20052;-43
2021/12/16 05:21:37;;;;;;;0.80;0.65;;;;;;;17.33;61.60;99785.88;3124076;28;20163;-42
2021/12/16 05:24:56;;;;;;;0.52;0.45;;;;;;;17.41;61.37;99781.34;3124919;28;20476;-42
2021/12/16 05:26:28;;;;;;;1.75;0.70;;;;;;;17.46;61.20;99782.66;3124388;28;20059;-42
2021/12/16 05:27:59;;;;;;;1.48;0.93;;;;;;;17.49;61.29;99787.69;3123967;28;20048;-41
2021/12/16 05:29:31;;;;;;;1.08;0.80;;;;;;;17.52;61.60;99790.88;3125623;28;20105;-41
2021/12/16 05:31:05;;;;;;;0.77;0.60;;;;;;;17.56;61.61;99797.59;3125336;28;20055;-42
2021/12/16 05:32:37;;;;;;;2.72;1.42;;;;;;;17.60;61.43;99793.53;3126512;28;20075;-41
2021/12/16 05:34:09;;;;;;;1.08;0.60;;;;;;;17.65;60.86;99791.19;3124725;28;20056;-41
2021/12/16 05:35:41;;;;;;;0.90;0.60;;;;;;;17.72;60.83;99790.50;3125761;28;20060;-41
2021/12/16 05:37:13;;;;;;;2.35;0.60;;;;;;;17.77;61.02;99782.81;3126258;28;20055;-41
2021/12/16 05:38:45;;;;;;;2.17;0.68;;;;;;;17.83;61.46;99787.53;3127249;28;20052;-45
2021/12/16 05:40:23;;;;;;;1.52;0.93;;;;;;;17.88;61.16;99790.53;3124773;28;20049;-42
2021/12/16 05:41:55;;;;;;;2.88;0.77;;;;;;;17.92;60.92;99791.88;3126947;28;20690;-42
2021/12/16 05:43:29;;;;;;;0.40;0.30;;;;;;;17.95;61.00;99791.53;3120378;28;20107;-42
2021/12/16 05:45:00;;;;;;;3.40;1.05;;;;;;;17.99;61.00;99790.16;3113018;28;20045;-43
2021/12/16 05:46:34;;;;;;;1.65;0.98;;;;;;;18.04;61.26;99792.34;3108055;28;20125;-43
2021/12/16 05:48:09;;;;;;;0.93;0.75;;;;;;;18.08;60.86;99793.69;3107768;28;20076;-42
2021/12/16 05:49:41;;;;;;;1.27;0.80;;;;;;;18.12;60.69;99783.44;3113650;28;20115;-42
2021/12/16 05:51:16;;;;;;;0.82;0.52;;;;;;;18.16;60.57;99782.06;3113352;28;20141;-43
2021/12/16 05:52:48;;;;;;;2.58;0.45;;;;;;;18.18;60.43;99786.25;3114660;28;20108;-42
2021/12/16 05:54:22;;;;;;;2.38;0.60;;;;;;;18.23;60.43;99794.63;3113113;28;20141;-41
2021/12/16 05:55:54;;;;;;;1.30;0.57;;;;;;;18.26;60.50;99794.28;3114272;28;20092;-41
2021/12/16 05:57:26;;;;;;;1.08;0.60;;;;;;;18.28;59.93;99781.53;3112521;28;20037;-44
2021/12/16 05:58:58;;;;;;;1.30;0.47;;;;;;;18.32;59.82;99782.00;3114344;28;20085;-43
2021/12/16 06:00:33;;;;;;;1.05;0.70;;;;;;;18.36;60.09;99783.38;3111278;28;20048;-43
2021/12/16 06:02:07;;;;;;;2.40;0.60;;;;;;;18.39;59.68;99783.00;3111508;28;20085;-43
2021/12/16 06:03:40;;;;;;;1.35;1.25;;;;;;;18.43;59.76;99778.13;3113842;28;20077;-42
2021/12/16 06:05:12;;;;;;;0.98;0.70;;;;;;;18.46;59.43;99781.28;3106550;28;20045;-44
2021/12/16 06:06:44;;;;;;;1.42;0.40;;;;;;;18.56;60.51;99783.78;3107371;28;20578;-45
2021/12/16 06:08:15;;;;;;;2.38;0.60;;;;;;;18.58;59.33;99786.25;3110677;28;20080;-44
2021/12/16 06:09:48;;;;;;;1.85;0.55;;;;;;;18.60;59.20;99800.38;3109269;28;20184;-49
2021/12/16 06:11:24;;;;;;;5.25;0.50;;;;;;;18.67;60.30;99801.34;3110112;28;20662;-47
2021/12/16 06:12:56;;;;;;;11.93;2.50;;;;;;;18.71;61.01;99805.34;3110406;28;20051;-45
2021/12/16 06:14:42;;;;;;;14.70;2.58;;;;;;;18.76;61.17;99813.75;3109851;28;20049;-45
2021/12/16 06:27:15;;;;;;;3.63;1.20;;;;;;;18.75;58.88;99820.16;3106039;28;20049;-45
2021/12/16 06:28:47;;;;;;;8.05;1.02;;;;;;;18.79;58.67;99824.16;3110120;28;20761;-46
2021/12/16 06:30:22;;;;;;;5.28;1.85;;;;;;;18.80;58.42;99822.31;3108113;28;20534;-47
2021/12/16 06:31:55;;;;;;;10.50;1.92;;;;;;;18.80;58.38;99822.31;3109575;28;20049;-47
2021/12/16 06:33:29;;;;;;;4.65;1.55;;;;;;;18.81;58.76;99829.38;3106877;28;20054;-46
2021/12/16 06:35:02;;;;;;;4.05;1.67;;;;;;;18.83;58.36;99827.31;3103967;28;20051;-46
2021/12/16 06:36:33;;;;;;;6.80;2.10;;;;;;;18.84;58.50;99834.41;3107451;28;20053;-49
2021/12/16 06:38:07;;;;;;;9.23;2.28;;;;;;;18.86;58.86;99843.97;3107618;28;20128;-45
2021/12/16 06:39:39;;;;;;;11.60;3.00;;;;;;;18.92;59.27;99840.56;3106459;28;20053;-52
2021/12/16 06:41:11;;;;;;;14.20;2.90;;;;;;;18.95;59.63;99840.22;3108357;28;20076;-50
2021/12/16 06:42:43;;;;;;;23.20;2.70;;;;;;;18.93;59.59;99836.84;3109976;28;20049;-45
2021/12/16 06:44:21;;;;;;;17.45;3.63;;;;;;;18.93;59.84;99847.59;3108819;28;20681;-46
2021/12/16 06:45:55;;;;;;;13.77;2.25;;;;;;;18.92;59.60;99845.09;3108900;28;20146;-46
2021/12/16 06:47:34;;;;;;;7.10;2.35;;;;;;;18.91;59.36;99852.31;3108302;28;20049;-48
2021/12/16 06:49:09;;;;;;;11.70;2.40;;;;;;;18.90;59.42;99852.50;3105606;28;20073;-46
2021/12/16 06:50:47;;;;;;;5.82;2.38;;;;;;;18.89;59.42;99854.34;3107057;28;20055;-47
2021/12/16 06:52:24;;;;;;;8.27;2.20;;;;;;;18.88;59.14;99858.03;3107827;28;20053;-47
2021/12/16 06:54:04;;;;;;;9.23;2.33;;;;;;;18.83;59.10;99860.41;3107081;28;20530;-50
2021/12/16 06:55:42;;;;;;;14.55;1.90;;;;;;;18.81;59.20;99867.84;3106879;28;20080;-47
2021/12/16 06:57:21;;;;;;;7.78;1.85;;;;;;;18.77;59.32;99869.19;3109750;28;20088;-46
2021/12/16 06:59:04;;;;;;;7.97;1.60;;;;;;;18.77;59.36;99854.91;3112410;28;20052;-48
2021/12/16 07:00:41;;;;;;;7.53;1.75;;;;;;;18.77;59.65;99860.28;3123162;28;20068;-47
2021/12/16 07:02:18;;;;;;;5.90;1.67;;;;;;;18.77;59.68;99861.13;3124292;28;20045;-47
2021/12/16 07:03:50;;;;;;;9.23;2.22;;;;;;;18.79;59.76;99867.16;3122070;28;20049;-47
2021/12/16 07:05:27;;;;;;;10.35;1.83;;;;;;;18.78;59.67;99868.19;3119174;28;20104;-45
2021/12/16 07:06:59;;;;;;;6.32;1.58;;;;;;;18.78;59.62;99861.94;3121586;28;20044;-47
2021/12/16 07:08:31;;;;;;;9.85;2.40;;;;;;;18.79;59.84;99867.16;3121684;28;20045;-49
2021/12/16 07:10:05;;;;;;;5.18;2.65;;;;;;;18.80;59.59;99859.94;3121984;28;20135;-47
2021/12/16 07:11:41;;;;;;;6.60;1.85;;;;;;;18.81;59.81;99867.00;3121478;28;20052;-47
2021/12/16 07:13:18;;;;;;;2.03;1.45;;;;;;;18.84;59.81;99866.66;3117115;28;20045;-48
2021/12/16 07:14:50;;;;;;;8.93;1.55;;;;;;;18.85;59.74;99869.16;3118576;28;21154;-47
2021/12/16 07:16:22;;;;;;;4.30;2.17;;;;;;;18.86;59.84;99865.47;3115330;28;20079;-47
2021/12/16 07:17:55;;;;;;;5.28;1.75;;;;;;;18.87;59.75;99860.91;3121687;28;20049;-46
2021/12/16 07:19:27;;;;;;;5.57;1.50;;;;;;;18.87;59.66;99866.28;3121415;28;20116;-45
2021/12/16 07:21:00;;;;;;;7.13;2.08;;;;;;;18.87;59.65;99866.28;3099100;28;20064;-47
2021/12/16 07:22:33;;;;;;;11.45;2.08;;;;;;;18.89;59.83;99869.66;3117524;28;20052;-47
2021/12/16 07:24:09;;;;;;;5.07;1.25;;;;;;;18.89;59.83;99875.03;3120314;28;20538;-49
2021/12/16 07:25:41;;;;;;;6.43;2.88;;;;;;;18.89;59.75;99873.19;3123180;28;20060;-45
2021/12/16 07:27:13;;;;;;;4.97;1.60;;;;;;;18.90;59.84;99865.94;3119712;28;20045;-49
2021/12/16 07:28:45;;;;;;;;;;;;;;;18.90;59.56;99865.94;3122348;28;20053;-47
2021/12/16 07:30:19;;;;;;;4.03;1.20;;;;;;;18.90;59.83;99872.16;3121887;28;19921;-47
2021/12/16 07:31:52;;;;;;;4.38;1.58;;;;;;;18.91;59.82;99872.97;3125835;28;20061;-47
2021/12/16 07:33:23;;;;;;;6.15;1.65;;;;;;;18.91;59.65;99871.13;3118758;28;20430;-46
2021/12/16 07:34:55;;;;;;;7.03;2.15;;;;;;;18.90;59.64;99866.78;3121244;28;20140;-50
2021/12/16 07:36:31;;;;;;;3.58;1.58;;;;;;;18.90;59.58;99876.69;3122171;28;20045;-46
2021/12/16 07:38:03;;;;;;;5.65;2.53;;;;;;;18.91;59.93;99875.69;3119942;28;20056;-46
2021/12/16 07:39:41;;;;;;;6.80;2.05;;;;;;;18.91;59.62;99870.28;3120195;28;20721;-46
2021/12/16 07:41:20;;;;;;;4.07;1.48;;;;;;;18.90;59.59;99874.84;3119660;28;20071;-45
2021/12/16 07:43:22;;;;;;;2.58;1.48;;;;;;;18.90;59.57;99869.47;3122435;28;20057;-47
2021/12/16 07:44:54;;;;;;;;;;;;;;;18.90;59.86;99869.47;3114234;28;20041;-47
2021/12/16 07:46:28;;;;;;;4.40;1.25;;;;;;;18.89;59.88;99873.19;3118802;28;19925;-48
2021/12/16 07:48:00;;;;;;;3.97;1.40;;;;;;;18.87;59.74;99872.50;3122161;28;20041;-47
2021/12/16 07:49:35;;;;;;;3.78;1.65;;;;;;;18.86;59.68;99876.22;3117279;28;20053;-47
2021/12/16 07:51:08;;;;;;;5.22;1.45;;;;;;;18.86;59.67;99878.03;3120655;28;20139;-46
2021/12/16 07:52:41;;;;;;;6.32;1.40;;;;;;;18.85;59.85;99879.91;3122058;28;20157;-48
2021/12/16 07:54:16;;;;;;;1.60;1.38;;;;;;;18.83;59.71;99879.22;3121976;28;20045;-47
2021/12/16 07:55:48;;;;;;;7.18;1.42;;;;;;;18.83;60.05;99878.41;3125408;28;20052;-47
2021/12/16 07:57:20;;;;;;;3.67;2.10;;;;;;;18.82;59.92;99872.19;3120237;28;20041;-48
2021/12/16 07:58:52;;;;;;;4.63;1.63;;;;;;;18.81;59.95;99872.38;3124844;28;20103;-48
2021/12/16 08:00:27;;;;;;;3.92;1.55;;;;;;;18.81;60.07;99883.13;3121906;28;20064;-47
2021/12/16 08:02:00;;;;;;;6.10;0.98;;;;;;;18.79;59.95;99885.97;3123279;28;20045;-47
2021/12/16 08:03:35;;;;;;;2.35;1.80;;;;;;;18.77;59.79;99884.47;3122804;28;20132;-46
2021/12/16 08:05:10;;;;;;;2.33;1.05;;;;;;;18.75;60.05;99890.03;3118951;28;20171;-46
2021/12/16 08:06:42;;;;;;;1.48;1.38;;;;;;;18.73;59.85;99882.09;3124272;28;20099;-50
2021/12/16 08:08:16;;;;;;;6.22;1.63;;;;;;;18.73;60.00;99883.97;3122013;28;20710;-47
2021/12/16 08:11:41;;;;;;;2.42;1.25;;;;;;;18.69;60.11;99880.78;3120818;28;20053;-46
2021/12/16 08:13:13;;;;;;;3.40;1.77;;;;;;;18.69;60.06;99882.63;3113842;28;20144;-47
2021/12/16 08:14:46;;;;;;;3.28;1.20;;;;;;;18.67;59.89;99882.81;3121691;28;20063;-48
2021/12/16 08:16:22;;;;;;;2.25;1.00;;;;;;;18.65;59.87;99884.81;3120696;28;20485;-46
2021/12/16 08:17:54;;;;;;;3.53;1.50;;;;;;;18.63;60.02;99886.84;3119361;28;20102;-46
2021/12/16 08:19:26;;;;;;;4.47;2.38;;;;;;;18.62;59.97;99890.53;3122325;28;20769;-45
2021/12/16 08:20:58;;;;;;;3.58;1.30;;;;;;;18.61;59.81;99883.50;3122134;28;20128;-46
2021/12/16 08:22:30;;;;;;;4.55;1.33;;;;;;;18.59;60.16;99890.06;3121801;28;20756;-45
2021/12/16 08:24:08;;;;;;;4.72;1.83;;;;;;;18.57;60.12;99886.69;3123490;28;20061;-47
2021/12/16 08:25:40;;;;;;;4.93;1.70;;;;;;;18.55;60.00;99889.56;3121914;28;20589;-46
2021/12/16 08:27:13;;;;;;;4.90;1.25;;;;;;;18.54;60.14;99877.13;3123641;28;20285;-49
2021/12/16 08:28:45;;;;;;;4.20;1.55;;;;;;;18.51;60.17;99881.00;3123035;28;20136;-46
2021/12/16 08:30:21;;;;;;;2.25;1.23;;;;;;;18.50;60.00;99882.03;3121830;28;20129;-45
2021/12/16 08:31:54;;;;;;;3.78;1.58;;;;;;;18.49;60.09;99879.50;3125699;28;20627;-45
2021/12/16 08:33:25;;;;;;;5.35;1.33;;;;;;;18.48;59.99;99886.72;3123968;28;20171;-46
2021/12/16 08:34:57;;;;;;;2.60;1.48;;;;;;;18.46;60.19;99890.59;3120961;28;20164;-46
2021/12/16 08:36:30;;;;;;;2.42;1.10;;;;;;;18.43;60.20;99883.72;3122497;28;20112;-45
2021/12/16 08:38:02;;;;;;;3.80;2.05;;;;;;;18.42;59.99;99879.38;3122013;28;20135;-45
2021/12/16 08:39:36;;;;;;;4.65;1.77;;;;;;;18.40;60.15;99880.53;3121727;28;20136;-45
2021/12/16 08:41:12;;;;;;;2.72;0.90;;;;;;;18.38;60.07;99878.00;3123765;28;20041;-47
2021/12/16 08:42:45;;;;;;;3.63;1.10;;;;;;;18.38;60.05;99879.88;3125135;28;20110;-45
2021/12/16 08:44:17;;;;;;;4.13;1.10;;;;;;;18.37;60.28;99886.25;3122784;28;20124;-46
2021/12/16 08:45:49;;;;;;;3.53;1.20;;;;;;;18.33;60.17;99880.41;3123742;28;20049;-47
2021/12/16 08:47:23;;;;;;;7.40;1.10;;;;;;;18.31;60.17;99877.88;3123973;28;20794;-47
2021/12/16 08:48:55;;;;;;;4.53;1.15;;;;;;;18.31;60.23;99877.03;3125344;28;20045;-45
2021/12/16 08:50:31;;;;;;;3.22;1.40;;;;;;;18.28;60.45;99872.84;3125076;28;20056;-49
2021/12/16 08:52:07;;;;;;;4.32;1.40;;;;;;;18.28;60.33;99877.38;3124539;28;20048;-46
2021/12/16 08:53:39;;;;;;;4.10;0.93;;;;;;;18.24;60.46;99878.72;3123353;28;20141;-46
2021/12/16 08:55:13;;;;;;;2.83;1.40;;;;;;;18.22;60.25;99883.41;3120911;28;20136;-47
2021/12/16 08:56:46;;;;;;;4.50;0.90;;;;;;;18.21;60.34;99884.44;3123390;28;20080;-48
2021/12/16 08:58:18;;;;;;;2.30;1.02;;;;;;;18.18;60.65;99888.31;3124519;28;20048;-45
2021/12/16 08:59:50;;;;;;;3.03;0.80;;;;;;;18.18;60.38;99890.16;3122845;28;20080;-47
2021/12/16 09:01:26;;;;;;;1.73;1.52;;;;;;;18.16;60.56;99886.78;3122940;28;20399;-45
2021/12/16 09:02:58;;;;;;;2.38;0.93;;;;;;;18.14;60.27;99894.19;3122570;28;20576;-46
2021/12/16 09:04:30;;;;;;;2.20;0.90;;;;;;;18.11;60.38;99897.19;3122775;28;20049;-45
2021/12/16 09:06:03;;;;;;;1.77;0.75;;;;;;;18.09;60.51;99892.00;3123543;28;20049;-46
2021/12/16 09:07:35;;;;;;;2.15;1.17;;;;;;;18.08;60.42;99893.03;3120999;28;20138;-50
2021/12/16 09:09:08;;;;;;;1.00;0.90;;;;;;;18.04;60.49;99897.88;3123675;28;20041;-47
2021/12/16 09:10:42;;;;;;;3.25;1.00;;;;;;;18.03;60.62;99893.53;3122471;28;20172;-47
2021/12/16 09:12:47;;;;;;;3.58;2.38;;;;;;;18.02;60.47;99897.19;3124598;28;20710;-49
2021/12/16 09:14:18;;;;;;;1.95;0.98;;;;;;;17.99;60.57;99894.84;3124619;28;20123;-46